createdAt,value
2022-12-09T00:02:02.429Z,43.80
2022-12-09T00:04:29.254Z,47.57
2022-12-09T00:06:55.949Z,42.40
2022-12-09T00:09:22.638Z,40.67
2022-12-09T00:11:49.207Z,38.67
2022-12-09T00:14:15.694Z,37.80
2022-12-09T00:16:42.254Z,43.57
2022-12-09T00:19:08.852Z,39.63
2022-12-09T00:21:35.913Z,36.70
2022-12-09T00:24:04.695Z,36.77
2022-12-09T00:26:31.656Z,40.90
2022-12-09T00:28:58.897Z,41.70
2022-12-09T00:31:27.793Z,43.30
2022-12-09T00:33:58.894Z,37.70
2022-12-09T00:36:25.697Z,42.27
2022-12-09T00:38:53.368Z,38.53
2022-12-09T00:41:20.249Z,46.33
2022-12-09T00:43:48.905Z,39.47
2022-12-09T00:46:15.377Z,46.30
2022-12-09T00:48:43.083Z,49.57
2022-12-09T00:51:12.757Z,50.63
2022-12-09T00:53:39.663Z,44.93
2022-12-09T00:56:07.014Z,46.87
2022-12-09T00:58:34.380Z,53.03
2022-12-09T01:01:00.961Z,47.83
2022-12-09T01:03:27.933Z,45.30
2022-12-09T01:05:55.429Z,45.87
2022-12-09T01:08:22.171Z,48.37
2022-12-09T01:10:49.070Z,52.17
2022-12-09T01:13:15.990Z,54.93
2022-12-09T01:15:43.016Z,46.40
2022-12-09T01:18:10.590Z,46.93
2022-12-09T01:20:37.352Z,51.10
2022-12-09T01:23:04.056Z,44.83
2022-12-09T01:25:30.598Z,52.03
2022-12-09T01:27:57.040Z,48.70
2022-12-09T01:30:23.885Z,44.37
2022-12-09T01:32:50.881Z,40.90
2022-12-09T01:35:17.675Z,48.70
2022-12-09T01:37:45.066Z,51.67
2022-12-09T01:40:16.796Z,48.47
2022-12-09T01:42:43.623Z,43.27
2022-12-09T01:45:19.864Z,47.00
2022-12-09T01:47:47.570Z,47.43
2022-12-09T01:50:14.420Z,48.83
2022-12-09T01:52:41.495Z,47.97
2022-12-09T01:55:08.608Z,42.27
2022-12-09T01:57:35.806Z,59.47
2022-12-09T02:00:02.716Z,48.23
2022-12-09T02:02:30.641Z,39.87
2022-12-09T02:04:57.909Z,45.10
2022-12-09T02:07:27.192Z,49.27
2022-12-09T02:09:54.133Z,45.90
2022-12-09T02:12:32.676Z,49.43
2022-12-09T02:15:18.623Z,42.20
2022-12-09T02:17:53.334Z,46.13
2022-12-09T02:20:26.122Z,37.53
2022-12-09T02:23:03.793Z,44.40
2022-12-09T02:25:32.303Z,44.77
2022-12-09T02:27:59.155Z,43.17
2022-12-09T02:30:32.454Z,38.33
2022-12-09T02:33:02.119Z,43.17
2022-12-09T02:35:35.990Z,39.87
2022-12-09T02:38:06.194Z,34.87
2022-12-09T02:40:42.318Z,36.67
2022-12-09T02:43:09.921Z,32.40
2022-12-09T02:45:38.825Z,30.97
2022-12-09T02:48:06.263Z,32.53
2022-12-09T02:50:34.923Z,39.77
2022-12-09T02:53:05.903Z,30.67
2022-12-09T02:55:33.656Z,35.57
2022-12-09T02:58:00.778Z,32.03
2022-12-09T03:00:29.511Z,31.57
2022-12-09T03:02:57.853Z,39.17
2022-12-09T03:05:24.627Z,38.07
2022-12-09T03:08:01.118Z,42.70
2022-12-09T03:10:31.126Z,38.13
2022-12-09T03:13:17.798Z,38.67
2022-12-09T03:15:46.607Z,39.93
2022-12-09T03:18:15.226Z,36.17
2022-12-09T03:20:43.398Z,41.50
2022-12-09T03:23:12.616Z,42.23
2022-12-09T03:25:44.579Z,34.80
2022-12-09T03:28:14.126Z,33.33
2022-12-09T03:30:42.064Z,34.20
2022-12-09T03:33:09.535Z,34.07
2022-12-09T03:35:38.208Z,35.37
2022-12-09T03:38:06.189Z,33.83
2022-12-09T03:40:33.807Z,43.37
2022-12-09T03:43:02.391Z,41.17
2022-12-09T03:45:29.112Z,39.40
2022-12-09T03:47:56.363Z,38.57
2022-12-09T03:50:24.726Z,38.40
2022-12-09T03:52:52.860Z,41.50
2022-12-09T03:55:24.418Z,42.20
2022-12-09T03:57:52.851Z,44.60
2022-12-09T04:00:19.578Z,42.77
2022-12-09T04:02:46.431Z,37.47
2022-12-09T04:05:13.209Z,35.33
2022-12-09T04:07:40.196Z,40.87
2022-12-09T04:10:07.480Z,38.40
2022-12-09T04:12:35.175Z,33.50
2022-12-09T04:15:02.001Z,35.17
2022-12-09T04:17:28.962Z,30.87
2022-12-09T04:19:56.839Z,33.53
2022-12-09T04:22:23.531Z,38.20
2022-12-09T04:24:50.342Z,41.83
2022-12-09T04:27:17.008Z,34.83
2022-12-09T04:29:44.087Z,29.73
2022-12-09T04:32:11.115Z,35.30
2022-12-09T04:34:37.777Z,31.73
2022-12-09T04:37:04.534Z,32.50
2022-12-09T04:39:31.413Z,41.40
2022-12-09T04:41:57.913Z,31.70
2022-12-09T04:44:24.466Z,34.47
2022-12-09T04:46:51.024Z,35.13
2022-12-09T04:49:17.577Z,34.57
2022-12-09T04:51:45.210Z,38.90
2022-12-09T04:54:14.826Z,34.17
2022-12-09T04:56:41.948Z,38.67
2022-12-09T04:59:08.879Z,35.40
2022-12-09T05:01:35.520Z,32.57
2022-12-09T05:04:02.452Z,37.63
2022-12-09T05:06:29.672Z,38.07
2022-12-09T05:08:56.654Z,34.10
2022-12-09T05:11:24.212Z,37.57
2022-12-09T05:13:52.042Z,38.20
2022-12-09T05:16:19.877Z,34.13
2022-12-09T05:18:47.529Z,30.90
2022-12-09T05:21:21.585Z,36.70
2022-12-09T05:23:48.702Z,37.33
2022-12-09T05:26:17.222Z,39.90
2022-12-09T05:28:44.296Z,35.43
2022-12-09T05:31:13.235Z,47.13
2022-12-09T05:33:39.968Z,34.10
2022-12-09T05:36:10.534Z,45.87
2022-12-09T05:38:37.133Z,53.03
2022-12-09T05:41:04.071Z,40.33
2022-12-09T05:43:31.699Z,37.93
2022-12-09T05:45:58.926Z,45.33
2022-12-09T05:48:25.721Z,42.40
2022-12-09T05:51:06.549Z,41.63
2022-12-09T05:53:33.474Z,29.97
2022-12-09T05:56:00.874Z,31.10
2022-12-09T05:58:27.692Z,47.67
2022-12-09T06:00:56.716Z,44.53
2022-12-09T06:03:24.371Z,43.07
2022-12-09T06:05:51.388Z,44.30
2022-12-09T06:08:18.167Z,53.20
2022-12-09T06:10:44.950Z,48.80
2022-12-09T06:13:11.655Z,47.87
2022-12-09T06:15:38.543Z,46.77
2022-12-09T06:18:05.646Z,37.07
2022-12-09T06:20:32.516Z,51.53
2022-12-09T06:22:59.465Z,43.23
2022-12-09T06:25:26.191Z,26.77
2022-12-09T06:27:53.896Z,51.60
2022-12-09T06:30:21.002Z,55.93
2022-12-09T06:32:47.762Z,38.97
2022-12-09T06:35:15.430Z,59.87
2022-12-09T06:37:42.358Z,36.70
2022-12-09T06:40:09.542Z,52.33
2022-12-09T06:42:36.336Z,41.30
2022-12-09T06:45:03.207Z,68.30
2022-12-09T06:47:29.879Z,52.00
2022-12-09T06:50:04.383Z,67.30
2022-12-09T06:52:33.056Z,39.37
2022-12-09T06:54:59.969Z,52.33
2022-12-09T06:57:26.847Z,51.03
2022-12-09T06:59:53.780Z,46.60
2022-12-09T07:02:20.739Z,59.23
2022-12-09T07:04:47.892Z,52.27
2022-12-09T07:07:15.925Z,60.30
2022-12-09T07:09:42.753Z,71.30
2022-12-09T07:12:09.386Z,75.03
2022-12-09T07:14:40.551Z,66.20
2022-12-09T07:17:07.793Z,83.87
2022-12-09T07:19:34.527Z,56.83
2022-12-09T07:22:01.232Z,79.43
2022-12-09T07:24:27.866Z,83.60
2022-12-09T07:26:54.529Z,76.90
2022-12-09T07:29:21.567Z,49.23
2022-12-09T07:31:48.785Z,57.40
2022-12-09T07:34:15.941Z,54.30
2022-12-09T07:36:42.659Z,74.27
2022-12-09T07:39:13.566Z,92.30
2022-12-09T07:41:40.685Z,85.03
2022-12-09T07:44:07.451Z,60.03
2022-12-09T07:46:34.083Z,69.13
2022-12-09T07:49:01.964Z,61.57
2022-12-09T07:51:29.534Z,74.87
2022-12-09T07:53:56.516Z,78.47
2022-12-09T07:56:25.010Z,113.27
2022-12-09T07:58:54.134Z,83.70
2022-12-09T08:01:25.246Z,78.20
2022-12-09T08:03:54.496Z,74.50
2022-12-09T08:06:22.637Z,67.77
2022-12-09T08:08:53.127Z,71.67
2022-12-09T08:11:21.749Z,67.83
2022-12-09T08:13:49.718Z,66.37
2022-12-09T08:16:19.571Z,77.67
2022-12-09T08:18:48.733Z,60.40
2022-12-09T08:21:16.987Z,82.10
2022-12-09T08:23:44.312Z,74.73
2022-12-09T08:26:12.189Z,98.03
2022-12-09T08:28:39.551Z,88.07
2022-12-09T08:31:10.833Z,77.30
2022-12-09T08:33:40.038Z,104.60
2022-12-09T08:36:12.316Z,90.93
2022-12-09T08:38:39.463Z,104.20
2022-12-09T08:41:43.177Z,125.10
2022-12-09T08:44:13.669Z,114.83
2022-12-09T08:46:43.054Z,78.33
2022-12-09T08:49:10.986Z,89.40
2022-12-09T08:51:40.500Z,68.17
2022-12-09T08:54:08.619Z,82.97
2022-12-09T08:56:35.499Z,82.47
2022-12-09T08:59:03.160Z,112.17
2022-12-09T09:01:35.894Z,97.90
2022-12-09T09:04:05.050Z,89.73
2022-12-09T09:06:32.537Z,92.43
2022-12-09T09:09:00.116Z,108.80
2022-12-09T09:11:27.156Z,79.87
2022-12-09T09:13:55.406Z,102.30
2022-12-09T09:16:25.644Z,99.10
2022-12-09T09:18:53.662Z,112.40
2022-12-09T09:21:22.498Z,82.17
2022-12-09T09:23:49.595Z,128.40
2022-12-09T09:26:17.884Z,80.27
2022-12-09T09:28:45.168Z,101.77
2022-12-09T09:31:13.539Z,79.40
2022-12-09T09:33:40.765Z,68.10
2022-12-09T09:36:10.534Z,74.50
2022-12-09T09:38:38.482Z,76.90
2022-12-09T09:41:17.299Z,88.43
2022-12-09T09:43:44.580Z,107.00
2022-12-09T09:46:16.239Z,73.67
2022-12-09T09:48:43.390Z,72.47
2022-12-09T09:51:15.831Z,68.73
2022-12-09T09:53:42.458Z,80.17
2022-12-09T09:56:15.166Z,78.97
2022-12-09T09:58:45.804Z,74.37
2022-12-09T10:01:17.952Z,60.47
2022-12-09T10:04:00.266Z,53.97
2022-12-09T10:06:38.336Z,44.37
2022-12-09T10:09:13.360Z,47.23
2022-12-09T10:11:49.533Z,81.03
2022-12-09T10:14:38.150Z,72.30
2022-12-09T10:17:05.567Z,59.83
2022-12-09T10:19:37.126Z,55.10
2022-12-09T10:22:13.565Z,44.83
2022-12-09T10:24:46.069Z,55.80
2022-12-09T10:27:27.785Z,62.00
2022-12-09T10:29:56.706Z,56.23
2022-12-09T10:32:25.756Z,42.33
2022-12-09T10:34:52.709Z,44.17
2022-12-09T10:37:25.937Z,52.30
2022-12-09T10:39:55.578Z,48.73
2022-12-09T10:42:41.240Z,45.63
2022-12-09T10:45:09.383Z,47.90
2022-12-09T10:47:39.541Z,36.67
2022-12-09T10:50:08.182Z,42.27
2022-12-09T10:52:44.485Z,46.60
2022-12-09T10:55:21.527Z,55.03
2022-12-09T10:57:48.542Z,34.83
2022-12-09T11:00:25.293Z,37.23
2022-12-09T11:02:55.640Z,48.50
2022-12-09T11:05:27.742Z,41.40
2022-12-09T11:07:57.182Z,36.43
2022-12-09T11:10:28.294Z,46.63
2022-12-09T11:13:00.448Z,40.33
2022-12-09T11:15:27.400Z,37.57
2022-12-09T11:17:56.857Z,40.37
2022-12-09T11:20:31.622Z,42.63
2022-12-09T11:23:16.112Z,41.67
2022-12-09T11:25:59.790Z,33.93
2022-12-09T11:28:29.314Z,37.97
2022-12-09T11:33:55.617Z,30.63
2022-12-09T11:36:25.638Z,26.93
2022-12-09T11:39:06.587Z,31.13
2022-12-09T11:41:51.870Z,25.10
2022-12-09T11:44:30.326Z,29.40
2022-12-09T11:47:03.122Z,28.73
2022-12-09T11:49:31.159Z,24.57
2022-12-09T11:52:03.006Z,30.77
2022-12-09T11:54:29.454Z,25.10
2022-12-09T11:56:56.628Z,23.77
2022-12-09T11:59:26.030Z,26.90
2022-12-09T12:02:11.495Z,21.87
2022-12-09T12:04:41.701Z,25.50
2022-12-09T12:07:28.391Z,20.03
2022-12-09T12:09:56.174Z,19.73
2022-12-09T12:12:31.703Z,22.80
2022-12-09T12:15:01.857Z,21.80
2022-12-09T12:17:42.984Z,22.53
2022-12-09T12:20:13.469Z,21.73
2022-12-09T12:22:42.660Z,17.93
2022-12-09T12:25:18.434Z,22.23
2022-12-09T12:27:51.187Z,19.50
2022-12-09T12:30:19.489Z,21.17
2022-12-09T12:33:40.695Z,18.00
2022-12-09T12:35:47.645Z,21.03
2022-12-09T12:38:30.999Z,18.10
2022-12-09T12:41:16.666Z,21.13
2022-12-09T12:44:07.985Z,21.70
2022-12-09T12:46:41.624Z,18.90
2022-12-09T12:49:14.166Z,21.37
2022-12-09T12:51:59.508Z,20.03
2022-12-09T12:54:49.595Z,23.73
2022-12-09T12:57:22.093Z,24.13
2022-12-09T12:59:48.598Z,27.67
2022-12-09T13:02:27.364Z,22.80
2022-12-09T13:05:03.609Z,22.93
2022-12-09T13:07:35.421Z,27.53
2022-12-09T13:10:11.136Z,24.23
2022-12-09T13:12:55.240Z,27.00
2022-12-09T13:15:23.897Z,29.47
2022-12-09T13:17:50.729Z,26.77
2022-12-09T13:20:37.579Z,27.50
2022-12-09T13:23:12.164Z,26.33
2022-12-09T13:26:02.819Z,24.40
2022-12-09T13:28:29.289Z,26.77
2022-12-09T13:30:57.728Z,23.73
2022-12-09T13:33:33.323Z,27.60
2022-12-09T13:36:15.878Z,26.07
2022-12-09T13:38:42.880Z,23.87
2022-12-09T13:41:28.247Z,24.13
2022-12-09T13:44:05.388Z,23.73
2022-12-09T13:46:32.645Z,23.07
2022-12-09T13:49:08.511Z,22.67
2022-12-09T13:51:44.252Z,25.00
2022-12-09T13:54:12.536Z,22.63
2022-12-09T13:56:39.162Z,22.37
2022-12-09T13:59:24.497Z,19.40
2022-12-09T14:02:02.008Z,21.83
2022-12-09T14:04:30.153Z,22.37
2022-12-09T14:07:14.658Z,22.33
2022-12-09T14:09:43.875Z,21.27
2022-12-09T14:12:13.113Z,19.13
2022-12-09T14:14:50.863Z,19.63
2022-12-09T14:17:37.331Z,21.50
2022-12-09T14:20:17.156Z,27.17
2022-12-09T14:23:02.828Z,25.70
2022-12-09T14:25:29.313Z,27.30
2022-12-09T14:28:31.127Z,20.83
2022-12-09T14:31:04.782Z,25.27
2022-12-09T14:33:39.070Z,22.20
2022-12-09T14:36:14.370Z,26.00
2022-12-09T14:39:16.068Z,24.13
2022-12-09T14:41:44.233Z,23.43
2022-12-09T14:44:32.123Z,25.40
2022-12-09T14:47:13.626Z,23.00
2022-12-09T14:49:48.858Z,24.00
2022-12-09T14:52:24.797Z,24.60
2022-12-09T14:54:56.320Z,25.67
2022-12-09T14:57:28.870Z,27.27
2022-12-09T14:59:56.417Z,26.90
2022-12-09T15:02:29.769Z,26.77
2022-12-09T15:04:57.586Z,24.03
2022-12-09T15:07:25.527Z,27.23
2022-12-09T15:10:00.197Z,24.63
2022-12-09T15:12:37.677Z,25.17
2022-12-09T15:15:04.257Z,27.03
2022-12-09T15:17:34.981Z,27.57
2022-12-09T15:20:02.464Z,24.60
2022-12-09T15:22:32.473Z,27.00
2022-12-09T15:25:03.153Z,27.40
2022-12-09T15:27:30.034Z,29.57
2022-12-09T15:29:56.563Z,28.23
2022-12-09T15:32:28.802Z,32.63
2022-12-09T15:34:55.773Z,31.37
2022-12-09T15:37:24.878Z,30.20
2022-12-09T15:40:04.078Z,29.63
2022-12-09T15:42:33.007Z,30.13
2022-12-09T15:45:19.885Z,33.33
2022-12-09T15:47:49.955Z,31.23
2022-12-09T15:50:23.256Z,29.50
2022-12-09T15:52:55.862Z,30.90
2022-12-09T15:55:25.673Z,34.80
2022-12-09T15:57:53.889Z,43.67
2022-12-09T16:00:20.595Z,42.10
2022-12-09T16:02:47.969Z,37.00
2022-12-09T16:05:20.974Z,39.47
2022-12-09T16:08:00.702Z,36.13
2022-12-09T16:10:28.688Z,37.43
2022-12-09T16:13:08.421Z,32.30
2022-12-09T16:16:01.190Z,41.17
2022-12-09T16:18:35.462Z,42.23
2022-12-09T16:21:08.334Z,47.97
2022-12-09T16:23:34.991Z,48.83
2022-12-09T16:26:06.991Z,45.87
2022-12-09T16:28:34.103Z,51.33
2022-12-09T16:31:02.143Z,51.80
2022-12-09T16:33:31.113Z,49.20
2022-12-09T16:36:05.098Z,52.13
2022-12-09T16:38:33.353Z,54.87
2022-12-09T16:41:04.385Z,45.00
2022-12-09T16:43:31.051Z,58.20
2022-12-09T16:46:02.032Z,54.33
2022-12-09T16:48:29.374Z,59.63
2022-12-09T16:51:05.890Z,50.77
2022-12-09T16:53:39.786Z,59.70
2022-12-09T16:56:06.559Z,59.67
2022-12-09T16:58:34.027Z,58.47
2022-12-09T17:01:01.286Z,55.90
2022-12-09T17:03:33.464Z,57.83
2022-12-09T17:05:59.981Z,55.27
2022-12-09T17:08:27.649Z,50.77
2022-12-09T17:10:59.704Z,52.97
2022-12-09T17:13:26.783Z,49.23
2022-12-09T17:15:58.096Z,66.03
2022-12-09T17:18:25.354Z,45.77
2022-12-09T17:21:01.904Z,44.90
2022-12-09T17:23:28.764Z,39.67
2022-12-09T17:25:56.079Z,47.07
2022-12-09T17:28:27.046Z,40.57
2022-12-09T17:30:57.741Z,52.57
2022-12-09T17:33:25.238Z,48.77
2022-12-09T17:35:52.055Z,45.50
2022-12-09T17:38:19.055Z,41.30
2022-12-09T17:40:45.691Z,48.00
2022-12-09T17:43:13.644Z,48.50
2022-12-09T17:45:42.254Z,39.90
2022-12-09T17:48:09.117Z,45.27
2022-12-09T17:50:37.240Z,38.97
2022-12-09T17:53:03.774Z,35.17
2022-12-09T17:55:30.397Z,37.47
2022-12-09T17:57:56.953Z,38.73
2022-12-09T18:00:24.733Z,40.17
2022-12-09T18:02:51.310Z,40.60
2022-12-09T18:05:17.968Z,37.27
2022-12-09T18:07:45.446Z,40.83
2022-12-09T18:10:12.249Z,37.27
2022-12-09T18:12:40.088Z,41.47
2022-12-09T18:15:08.171Z,38.00
2022-12-09T18:17:34.816Z,36.63
2022-12-09T18:20:01.523Z,41.73
2022-12-09T18:22:28.031Z,47.53
2022-12-09T18:24:55.271Z,41.77
2022-12-09T18:27:21.875Z,45.37
2022-12-09T18:29:48.608Z,38.47
2022-12-09T18:32:15.391Z,36.70
2022-12-09T18:34:41.975Z,37.83
2022-12-09T18:37:08.648Z,39.83
2022-12-09T18:39:38.909Z,40.93
2022-12-09T18:42:06.297Z,42.37
2022-12-09T18:44:33.030Z,46.37
2022-12-09T18:47:00.289Z,42.20
2022-12-09T18:49:28.607Z,39.60
2022-12-09T18:51:55.757Z,37.73
2022-12-09T18:54:23.839Z,41.57
2022-12-09T18:56:50.999Z,44.27
2022-12-09T18:59:17.943Z,43.53
2022-12-09T19:01:45.250Z,44.20
2022-12-09T19:04:16.447Z,43.97
2022-12-09T19:06:44.387Z,43.73
2022-12-09T19:09:15.695Z,44.43
2022-12-09T19:11:44.616Z,47.77
2022-12-09T19:14:11.375Z,42.70
2022-12-09T19:16:38.297Z,47.47
2022-12-09T19:19:09.968Z,48.83
2022-12-09T19:21:39.757Z,52.30
2022-12-09T19:24:07.161Z,44.97
2022-12-09T19:26:34.780Z,49.47
2022-12-09T19:29:04.904Z,48.87
2022-12-09T19:31:33.553Z,49.10
2022-12-09T19:34:01.712Z,52.17
2022-12-09T19:36:29.150Z,47.90
2022-12-09T19:38:57.029Z,53.57
2022-12-09T19:41:23.824Z,54.17
2022-12-09T19:44:00.130Z,56.03
2022-12-09T19:46:30.215Z,52.30
2022-12-09T19:48:57.588Z,57.97
2022-12-09T19:51:25.343Z,52.87
2022-12-09T19:53:56.272Z,64.27
2022-12-09T19:56:23.505Z,55.93
2022-12-09T19:58:53.803Z,68.57
2022-12-09T20:01:21.938Z,65.70
2022-12-09T20:03:52.452Z,66.47
2022-12-09T20:06:20.270Z,77.77
2022-12-09T20:08:48.551Z,65.47
2022-12-09T20:11:17.513Z,68.97
2022-12-09T20:13:45.941Z,66.37
2022-12-09T20:16:16.972Z,70.63
2022-12-09T20:18:48.479Z,76.40
2022-12-09T20:21:16.277Z,82.23
2022-12-09T20:23:43.781Z,72.27
2022-12-09T20:26:11.976Z,78.77
2022-12-09T20:28:39.249Z,72.67
2022-12-09T20:31:06.856Z,82.17
2022-12-09T20:33:33.480Z,71.80
2022-12-09T20:36:10.351Z,69.20
2022-12-09T20:38:37.401Z,62.67
2022-12-09T20:41:09.887Z,78.00
2022-12-09T20:43:39.720Z,75.43
2022-12-09T20:46:07.376Z,69.20
2022-12-09T20:48:34.224Z,62.03
2022-12-09T20:51:03.132Z,64.57
2022-12-09T20:53:29.850Z,70.60
2022-12-09T20:55:57.245Z,72.63
2022-12-09T20:58:23.975Z,70.20
2022-12-09T21:00:50.734Z,70.13
2022-12-09T21:03:17.567Z,73.80
2022-12-09T21:05:44.113Z,68.10
2022-12-09T21:08:10.650Z,58.90
2022-12-09T21:10:38.473Z,64.87
2022-12-09T21:13:05.050Z,67.70
2022-12-09T21:15:31.636Z,65.40
2022-12-09T21:17:58.212Z,65.23
2022-12-09T21:20:24.712Z,80.60
2022-12-09T21:23:10.621Z,63.73
2022-12-09T21:25:37.663Z,69.17
2022-12-09T21:28:04.297Z,69.20
2022-12-09T21:30:30.817Z,67.17
2022-12-09T21:32:57.293Z,69.83
2022-12-09T21:35:23.751Z,79.53
2022-12-09T21:37:55.849Z,75.80
2022-12-09T21:40:22.799Z,84.67
2022-12-09T21:42:49.319Z,74.00
2022-12-09T21:45:15.993Z,84.10
2022-12-09T21:47:42.449Z,80.30
2022-12-09T21:50:09.461Z,73.03
2022-12-09T21:52:36.213Z,81.43
2022-12-09T21:55:03.514Z,80.27
2022-12-09T21:57:30.029Z,63.67
2022-12-09T21:59:56.535Z,85.87
2022-12-09T22:02:23.054Z,85.23
2022-12-09T22:04:52.480Z,86.47
2022-12-09T22:07:18.915Z,71.20
2022-12-09T22:09:45.520Z,83.00
2022-12-09T22:12:12.027Z,76.93
2022-12-09T22:14:38.508Z,88.33
2022-12-09T22:17:05.021Z,104.67
2022-12-09T22:19:31.823Z,90.83
2022-12-09T22:21:58.353Z,77.43
2022-12-09T22:24:24.842Z,87.80
2022-12-09T22:26:51.345Z,85.13
2022-12-09T22:29:18.003Z,89.17
2022-12-09T22:31:44.766Z,86.57
2022-12-09T22:34:20.578Z,88.20
2022-12-09T22:36:48.176Z,83.87
2022-12-09T22:39:16.078Z,91.57
2022-12-09T22:41:46.053Z,74.77
2022-12-09T22:44:13.391Z,93.13
2022-12-09T22:46:40.409Z,93.53
2022-12-09T22:49:07.212Z,77.93
2022-12-09T22:51:35.528Z,90.93
2022-12-09T22:54:04.241Z,82.73
2022-12-09T22:56:30.911Z,83.03
2022-12-09T22:58:58.716Z,91.00
2022-12-09T23:01:26.503Z,73.03
2022-12-09T23:03:54.014Z,89.67
2022-12-09T23:06:20.768Z,96.00
2022-12-09T23:08:47.939Z,97.13
2022-12-09T23:11:16.102Z,83.73
2022-12-09T23:13:43.062Z,92.87
2022-12-09T23:16:12.647Z,66.03
2022-12-09T23:18:40.585Z,97.77
2022-12-09T23:21:16.936Z,78.70
2022-12-09T23:23:45.295Z,91.70
2022-12-09T23:26:13.365Z,83.90
2022-12-09T23:28:42.833Z,68.73
2022-12-09T23:31:11.386Z,88.23
2022-12-09T23:33:40.908Z,73.27
2022-12-09T23:36:09.028Z,87.53
2022-12-09T23:38:36.099Z,72.27
2022-12-09T23:41:04.347Z,70.90
2022-12-09T23:43:32.064Z,87.43
2022-12-09T23:46:03.007Z,118.87
2022-12-09T23:48:29.871Z,92.40
2022-12-09T23:50:59.288Z,78.37
2022-12-09T23:53:26.695Z,79.40
2022-12-09T23:55:53.218Z,114.00
2022-12-09T23:58:23.928Z,110.63
